sensor_id;sensor_type;location;lat;lon;timestamp;pressure;altitude;pressure_sealevel;temperature;humidity
77212;BME280;66206;0.000;0.000;2023-05-07T00:01:57;97877.58;;;23.28;29.99
77212;BME280;66206;0.000;0.000;2023-05-07T00:04:23;97881.09;;;23.62;29.77
77212;BME280;66206;0.000;0.000;2023-05-07T00:06:50;97880.42;;;23.30;29.96
77212;BME280;66206;0.000;0.000;2023-05-07T00:09:16;97883.52;;;23.30;30.01
77212;BME280;66206;0.000;0.000;2023-05-07T00:11:43;97882.29;;;23.32;29.91
77212;BME280;66206;0.000;0.000;2023-05-07T00:14:10;97882.52;;;23.07;30.19
77212;BME280;66206;0.000;0.000;2023-05-07T00:16:36;97880.03;;;23.11;30.01
77212;BME280;66206;0.000;0.000;2023-05-07T00:19:03;97877.00;;;23.27;29.86
77212;BME280;66206;0.000;0.000;2023-05-07T00:21:29;97879.01;;;23.11;29.92
77212;BME280;66206;0.000;0.000;2023-05-07T00:23:56;97881.51;;;22.95;30.13
77212;BME280;66206;0.000;0.000;2023-05-07T00:26:23;97883.56;;;23.13;29.94
77212;BME280;66206;0.000;0.000;2023-05-07T00:28:49;97885.58;;;23.04;29.97
77212;BME280;66206;0.000;0.000;2023-05-07T00:31:16;97886.01;;;23.23;29.83
77212;BME280;66206;0.000;0.000;2023-05-07T00:33:42;97884.25;;;23.12;29.91
77212;BME280;66206;0.000;0.000;2023-05-07T00:36:09;97883.96;;;22.90;30.14
77212;BME280;66206;0.000;0.000;2023-05-07T00:38:36;97883.49;;;22.94;30.03
77212;BME280;66206;0.000;0.000;2023-05-07T00:41:02;97886.40;;;22.96;30.10
77212;BME280;66206;0.000;0.000;2023-05-07T00:43:29;97888.19;;;23.23;30.01
77212;BME280;66206;0.000;0.000;2023-05-07T00:45:55;97888.75;;;23.11;29.91
77212;BME280;66206;0.000;0.000;2023-05-07T00:48:22;97887.31;;;23.03;30.06
77212;BME280;66206;0.000;0.000;2023-05-07T00:50:49;97886.96;;;23.03;30.02
77212;BME280;66206;0.000;0.000;2023-05-07T00:53:15;97888.51;;;22.89;30.05
77212;BME280;66206;0.000;0.000;2023-05-07T00:55:42;97884.40;;;22.67;30.33
77212;BME280;66206;0.000;0.000;2023-05-07T00:58:08;97878.39;;;22.73;30.24
77212;BME280;66206;0.000;0.000;2023-05-07T01:00:35;97876.88;;;22.69;30.16
77212;BME280;66206;0.000;0.000;2023-05-07T01:03:02;97874.00;;;22.84;30.09
77212;BME280;66206;0.000;0.000;2023-05-07T01:05:29;97871.40;;;22.81;30.19
77212;BME280;66206;0.000;0.000;2023-05-07T01:07:55;97868.62;;;22.66;30.22
77212;BME280;66206;0.000;0.000;2023-05-07T01:10:23;97867.62;;;22.81;30.09
77212;BME280;66206;0.000;0.000;2023-05-07T01:12:50;97865.45;;;22.78;30.09
77212;BME280;66206;0.000;0.000;2023-05-07T01:15:17;97864.17;;;22.63;30.27
77212;BME280;66206;0.000;0.000;2023-05-07T01:17:44;97864.38;;;22.73;30.10
77212;BME280;66206;0.000;0.000;2023-05-07T01:20:11;97863.01;;;22.74;30.14
77212;BME280;66206;0.000;0.000;2023-05-07T01:22:38;97862.19;;;22.55;30.19
77212;BME280;66206;0.000;0.000;2023-05-07T01:25:05;97861.97;;;22.66;29.91
77212;BME280;66206;0.000;0.000;2023-05-07T01:27:32;97860.41;;;22.68;29.85
77212;BME280;66206;0.000;0.000;2023-05-07T01:29:59;97861.63;;;22.85;29.85
77212;BME280;66206;0.000;0.000;2023-05-07T01:32:27;97865.12;;;22.80;29.94
77212;BME280;66206;0.000;0.000;2023-05-07T01:34:55;97862.70;;;22.63;30.14
77212;BME280;66206;0.000;0.000;2023-05-07T01:37:23;97860.86;;;22.69;30.11
77212;BME280;66206;0.000;0.000;2023-05-07T01:39:51;97857.92;;;22.61;30.27
77212;BME280;66206;0.000;0.000;2023-05-07T01:42:18;97856.73;;;22.60;30.05
77212;BME280;66206;0.000;0.000;2023-05-07T01:44:45;97856.25;;;22.78;30.05
77212;BME280;66206;0.000;0.000;2023-05-07T01:47:12;97854.69;;;22.79;30.11
77212;BME280;66206;0.000;0.000;2023-05-07T01:49:40;97853.43;;;22.83;30.23
77212;BME280;66206;0.000;0.000;2023-05-07T01:52:07;97856.19;;;22.67;30.14
77212;BME280;66206;0.000;0.000;2023-05-07T01:54:33;97856.19;;;22.62;30.18
77212;BME280;66206;0.000;0.000;2023-05-07T01:57:00;97853.88;;;22.50;30.28
77212;BME280;66206;0.000;0.000;2023-05-07T01:59:27;97854.21;;;22.40;30.41
77212;BME280;66206;0.000;0.000;2023-05-07T02:01:53;97852.57;;;22.54;30.31
77212;BME280;66206;0.000;0.000;2023-05-07T02:04:20;97855.80;;;22.76;30.13
77212;BME280;66206;0.000;0.000;2023-05-07T02:06:46;97854.59;;;22.60;30.16
77212;BME280;66206;0.000;0.000;2023-05-07T02:09:13;97855.31;;;22.58;30.23
77212;BME280;66206;0.000;0.000;2023-05-07T02:11:40;97851.59;;;22.52;30.26
77212;BME280;66206;0.000;0.000;2023-05-07T02:14:06;97851.94;;;22.71;30.17
77212;BME280;66206;0.000;0.000;2023-05-07T02:16:33;97853.53;;;22.54;30.21
77212;BME280;66206;0.000;0.000;2023-05-07T02:19:00;97854.33;;;22.29;30.38
77212;BME280;66206;0.000;0.000;2023-05-07T02:21:26;97858.21;;;22.52;30.22
77212;BME280;66206;0.000;0.000;2023-05-07T02:23:53;97854.61;;;22.42;30.21
77212;BME280;66206;0.000;0.000;2023-05-07T02:26:19;97855.72;;;22.76;30.01
77212;BME280;66206;0.000;0.000;2023-05-07T02:28:46;97854.46;;;22.48;30.21
77212;BME280;66206;0.000;0.000;2023-05-07T02:31:12;97853.17;;;22.45;30.32
77212;BME280;66206;0.000;0.000;2023-05-07T02:33:39;97858.21;;;22.50;30.32
77212;BME280;66206;0.000;0.000;2023-05-07T02:36:06;97857.37;;;22.13;30.52
77212;BME280;66206;0.000;0.000;2023-05-07T02:38:33;97855.97;;;22.49;30.18
77212;BME280;66206;0.000;0.000;2023-05-07T02:41:00;97852.75;;;22.33;30.40
77212;BME280;66206;0.000;0.000;2023-05-07T02:43:27;97851.03;;;22.27;30.39
77212;BME280;66206;0.000;0.000;2023-05-07T02:46:00;97852.29;;;22.12;30.76
77212;BME280;66206;0.000;0.000;2023-05-07T02:48:21;97851.39;;;22.34;30.54
77212;BME280;66206;0.000;0.000;2023-05-07T02:50:48;97855.28;;;22.30;30.53
77212;BME280;66206;0.000;0.000;2023-05-07T02:53:14;97857.29;;;22.29;30.39
77212;BME280;66206;0.000;0.000;2023-05-07T02:55:41;97855.39;;;22.25;30.49
77212;BME280;66206;0.000;0.000;2023-05-07T02:58:07;97853.25;;;22.42;30.27
77212;BME280;66206;0.000;0.000;2023-05-07T03:00:34;97849.66;;;22.47;30.04
77212;BME280;66206;0.000;0.000;2023-05-07T03:03:01;97848.58;;;22.61;30.14
77212;BME280;66206;0.000;0.000;2023-05-07T03:05:27;97842.54;;;22.37;30.30
77212;BME280;66206;0.000;0.000;2023-05-07T03:07:54;97844.88;;;22.28;30.48
77212;BME280;66206;0.000;0.000;2023-05-07T03:10:20;97844.44;;;22.30;30.49
77212;BME280;66206;0.000;0.000;2023-05-07T03:12:47;97842.44;;;22.32;30.45
77212;BME280;66206;0.000;0.000;2023-05-07T03:15:14;97845.83;;;22.45;30.37
77212;BME280;66206;0.000;0.000;2023-05-07T03:17:40;97847.55;;;22.41;30.20
77212;BME280;66206;0.000;0.000;2023-05-07T03:20:07;97851.21;;;22.50;30.47
77212;BME280;66206;0.000;0.000;2023-05-07T03:22:34;97853.69;;;22.68;30.12
77212;BME280;66206;0.000;0.000;2023-05-07T03:25:01;97851.97;;;22.46;30.18
77212;BME280;66206;0.000;0.000;2023-05-07T03:27:27;97852.92;;;22.24;30.34
77212;BME280;66206;0.000;0.000;2023-05-07T03:29:54;97852.90;;;22.31;30.40
77212;BME280;66206;0.000;0.000;2023-05-07T03:32:20;97845.92;;;22.42;30.36
77212;BME280;66206;0.000;0.000;2023-05-07T03:34:47;97845.54;;;22.28;30.39
77212;BME280;66206;0.000;0.000;2023-05-07T03:37:14;97842.80;;;22.63;30.17
77212;BME280;66206;0.000;0.000;2023-05-07T03:39:40;97841.56;;;22.47;30.18
77212;BME280;66206;0.000;0.000;2023-05-07T03:42:07;97843.81;;;22.60;30.11
77212;BME280;66206;0.000;0.000;2023-05-07T03:44:33;97845.45;;;22.58;29.97
77212;BME280;66206;0.000;0.000;2023-05-07T03:47:00;97847.23;;;22.66;29.80
77212;BME280;66206;0.000;0.000;2023-05-07T03:49:27;97852.37;;;22.42;29.88
77212;BME280;66206;0.000;0.000;2023-05-07T03:51:53;97851.23;;;22.56;29.68
77212;BME280;66206;0.000;0.000;2023-05-07T03:54:20;97855.00;;;22.73;29.49
77212;BME280;66206;0.000;0.000;2023-05-07T03:56:46;97859.67;;;22.63;29.61
77212;BME280;66206;0.000;0.000;2023-05-07T03:59:13;97861.66;;;22.63;29.63
77212;BME280;66206;0.000;0.000;2023-05-07T04:01:40;97863.27;;;22.60;29.60
77212;BME280;66206;0.000;0.000;2023-05-07T04:04:07;97866.02;;;22.54;29.59
77212;BME280;66206;0.000;0.000;2023-05-07T04:06:33;97869.29;;;22.62;29.50
77212;BME280;66206;0.000;0.000;2023-05-07T04:09:00;97871.11;;;22.62;29.66
77212;BME280;66206;0.000;0.000;2023-05-07T04:11:26;97876.93;;;22.69;29.49
77212;BME280;66206;0.000;0.000;2023-05-07T04:13:53;97881.42;;;22.49;29.58
77212;BME280;66206;0.000;0.000;2023-05-07T04:16:19;97883.13;;;22.71;29.63
77212;BME280;66206;0.000;0.000;2023-05-07T04:18:46;97887.45;;;22.63;29.60
77212;BME280;66206;0.000;0.000;2023-05-07T04:21:14;97892.05;;;22.65;29.58
77212;BME280;66206;0.000;0.000;2023-05-07T04:23:41;97896.56;;;22.82;29.55
77212;BME280;66206;0.000;0.000;2023-05-07T04:26:07;97898.92;;;22.59;29.65
77212;BME280;66206;0.000;0.000;2023-05-07T04:28:34;97902.04;;;22.49;29.92
77212;BME280;66206;0.000;0.000;2023-05-07T04:31:01;97902.20;;;22.68;29.81
77212;BME280;66206;0.000;0.000;2023-05-07T04:33:28;97902.25;;;22.45;30.04
77212;BME280;66206;0.000;0.000;2023-05-07T04:35:54;97905.53;;;22.22;30.36
77212;BME280;66206;0.000;0.000;2023-05-07T04:38:21;97904.51;;;22.37;30.25
77212;BME280;66206;0.000;0.000;2023-05-07T04:40:47;97905.47;;;22.14;30.60
77212;BME280;66206;0.000;0.000;2023-05-07T04:43:14;97905.59;;;21.95;30.86
77212;BME280;66206;0.000;0.000;2023-05-07T04:45:41;97907.87;;;22.17;30.60
77212;BME280;66206;0.000;0.000;2023-05-07T04:48:08;97908.85;;;22.16;30.65
77212;BME280;66206;0.000;0.000;2023-05-07T04:50:35;97911.87;;;22.11;30.41
77212;BME280;66206;0.000;0.000;2023-05-07T04:53:01;97912.56;;;22.25;30.39
77212;BME280;66206;0.000;0.000;2023-05-07T04:55:28;97915.17;;;22.36;30.58
77212;BME280;66206;0.000;0.000;2023-05-07T04:57:55;97917.48;;;22.34;30.52
77212;BME280;66206;0.000;0.000;2023-05-07T05:00:21;97921.89;;;22.29;30.54
77212;BME280;66206;0.000;0.000;2023-05-07T05:02:48;97919.16;;;22.05;30.74
77212;BME280;66206;0.000;0.000;2023-05-07T05:05:14;97918.85;;;22.12;30.71
77212;BME280;66206;0.000;0.000;2023-05-07T05:07:41;97918.14;;;21.96;30.90
77212;BME280;66206;0.000;0.000;2023-05-07T05:10:08;97918.33;;;22.00;30.93
77212;BME280;66206;0.000;0.000;2023-05-07T05:12:34;97921.62;;;22.00;30.84
77212;BME280;66206;0.000;0.000;2023-05-07T05:15:01;97923.34;;;21.84;31.09
77212;BME280;66206;0.000;0.000;2023-05-07T05:17:27;97924.19;;;22.25;30.66
77212;BME280;66206;0.000;0.000;2023-05-07T05:19:54;97920.51;;;22.15;30.69
77212;BME280;66206;0.000;0.000;2023-05-07T05:22:21;97923.54;;;21.79;31.05
77212;BME280;66206;0.000;0.000;2023-05-07T05:24:47;97923.18;;;22.05;30.85
77212;BME280;66206;0.000;0.000;2023-05-07T05:27:14;97922.04;;;22.03;30.88
77212;BME280;66206;0.000;0.000;2023-05-07T05:29:40;97927.42;;;22.02;30.91
77212;BME280;66206;0.000;0.000;2023-05-07T05:32:07;97925.33;;;22.10;30.86
77212;BME280;66206;0.000;0.000;2023-05-07T05:34:34;97924.03;;;22.13;30.89
77212;BME280;66206;0.000;0.000;2023-05-07T05:37:00;97923.23;;;22.17;30.90
77212;BME280;66206;0.000;0.000;2023-05-07T05:39:27;97928.44;;;21.89;31.09
77212;BME280;66206;0.000;0.000;2023-05-07T05:41:53;97929.28;;;21.76;31.25
77212;BME280;66206;0.000;0.000;2023-05-07T05:44:20;97930.92;;;21.34;31.77
77212;BME280;66206;0.000;0.000;2023-05-07T05:46:47;97924.02;;;21.58;31.38
77212;BME280;66206;0.000;0.000;2023-05-07T05:49:13;97922.65;;;21.70;31.12
77212;BME280;66206;0.000;0.000;2023-05-07T05:51:40;97920.34;;;21.59;31.42
77212;BME280;66206;0.000;0.000;2023-05-07T05:54:07;97925.14;;;21.70;31.29
77212;BME280;66206;0.000;0.000;2023-05-07T05:56:33;97924.98;;;21.93;31.04
77212;BME280;66206;0.000;0.000;2023-05-07T05:59:00;97923.65;;;21.97;30.98
77212;BME280;66206;0.000;0.000;2023-05-07T06:01:26;97924.30;;;21.52;31.49
77212;BME280;66206;0.000;0.000;2023-05-07T06:03:53;97925.14;;;21.81;31.21
77212;BME280;66206;0.000;0.000;2023-05-07T06:06:20;97926.76;;;22.09;30.85
77212;BME280;66206;0.000;0.000;2023-05-07T06:08:46;97928.85;;;22.12;30.87
77212;BME280;66206;0.000;0.000;2023-05-07T06:11:13;97930.72;;;21.98;30.95
77212;BME280;66206;0.000;0.000;2023-05-07T06:13:39;97930.87;;;21.99;30.94
77212;BME280;66206;0.000;0.000;2023-05-07T06:16:06;97933.00;;;21.83;31.19
77212;BME280;66206;0.000;0.000;2023-05-07T06:18:33;97929.93;;;22.13;30.94
77212;BME280;66206;0.000;0.000;2023-05-07T06:20:59;97929.16;;;22.05;31.23
77212;BME280;66206;0.000;0.000;2023-05-07T06:23:26;97930.06;;;22.22;31.20
77212;BME280;66206;0.000;0.000;2023-05-07T06:25:52;97924.55;;;22.34;31.29
77212;BME280;66206;0.000;0.000;2023-05-07T06:28:19;97931.19;;;22.28;31.27
77212;BME280;66206;0.000;0.000;2023-05-07T06:30:46;97941.32;;;22.30;31.21
77212;BME280;66206;0.000;0.000;2023-05-07T06:33:12;97946.20;;;22.34;31.38
77212;BME280;66206;0.000;0.000;2023-05-07T06:35:39;97952.07;;;22.60;30.96
77212;BME280;66206;0.000;0.000;2023-05-07T06:38:05;97951.92;;;22.47;30.80
77212;BME280;66206;0.000;0.000;2023-05-07T06:40:32;97954.53;;;22.17;31.15
77212;BME280;66206;0.000;0.000;2023-05-07T06:42:59;97953.39;;;22.05;31.55
77212;BME280;66206;0.000;0.000;2023-05-07T06:45:25;97957.02;;;22.15;31.36
77212;BME280;66206;0.000;0.000;2023-05-07T06:47:52;97963.90;;;22.23;31.31
77212;BME280;66206;0.000;0.000;2023-05-07T06:50:18;97966.16;;;22.47;31.35
77212;BME280;66206;0.000;0.000;2023-05-07T06:52:45;97967.10;;;22.43;31.25
77212;BME280;66206;0.000;0.000;2023-05-07T06:55:12;97965.67;;;22.16;31.43
77212;BME280;66206;0.000;0.000;2023-05-07T06:57:38;97966.68;;;22.18;31.44
77212;BME280;66206;0.000;0.000;2023-05-07T07:00:05;97966.82;;;21.51;32.36
77212;BME280;66206;0.000;0.000;2023-05-07T07:02:32;97967.68;;;21.76;32.02
77212;BME280;66206;0.000;0.000;2023-05-07T07:04:59;97970.22;;;21.21;32.52
77212;BME280;66206;0.000;0.000;2023-05-07T07:07:25;97970.77;;;21.57;32.24
77212;BME280;66206;0.000;0.000;2023-05-07T07:09:52;97971.65;;;22.09;31.55
77212;BME280;66206;0.000;0.000;2023-05-07T07:12:18;97968.58;;;22.37;31.46
77212;BME280;66206;0.000;0.000;2023-05-07T07:14:45;97967.11;;;21.86;31.71
77212;BME280;66206;0.000;0.000;2023-05-07T07:17:12;97966.38;;;21.96;31.89
77212;BME280;66206;0.000;0.000;2023-05-07T07:19:38;97965.51;;;22.26;31.45
77212;BME280;66206;0.000;0.000;2023-05-07T07:22:05;97966.01;;;22.16;31.65
77212;BME280;66206;0.000;0.000;2023-05-07T07:24:31;97965.78;;;22.39;31.33
77212;BME280;66206;0.000;0.000;2023-05-07T07:26:58;97966.87;;;22.16;31.66
77212;BME280;66206;0.000;0.000;2023-05-07T07:29:25;97965.86;;;22.01;31.71
77212;BME280;66206;0.000;0.000;2023-05-07T07:31:51;97964.76;;;21.93;31.79
77212;BME280;66206;0.000;0.000;2023-05-07T07:34:18;97964.74;;;22.13;31.74
77212;BME280;66206;0.000;0.000;2023-05-07T07:36:44;97957.60;;;22.37;31.31
77212;BME280;66206;0.000;0.000;2023-05-07T07:39:11;97960.30;;;22.59;31.09
77212;BME280;66206;0.000;0.000;2023-05-07T07:41:38;97962.33;;;22.45;31.21
77212;BME280;66206;0.000;0.000;2023-05-07T07:44:04;97963.26;;;22.12;31.70
77212;BME280;66206;0.000;0.000;2023-05-07T07:46:31;97965.82;;;22.55;31.22
77212;BME280;66206;0.000;0.000;2023-05-07T07:48:57;97967.79;;;22.10;31.71
77212;BME280;66206;0.000;0.000;2023-05-07T07:51:24;97970.14;;;21.92;31.86
77212;BME280;66206;0.000;0.000;2023-05-07T07:53:51;97971.68;;;21.60;32.26
77212;BME280;66206;0.000;0.000;2023-05-07T07:56:17;97970.34;;;21.96;31.93
77212;BME280;66206;0.000;0.000;2023-05-07T07:58:44;97963.19;;;22.49;31.43
77212;BME280;66206;0.000;0.000;2023-05-07T08:01:10;97957.10;;;22.38;31.44
77212;BME280;66206;0.000;0.000;2023-05-07T08:03:37;97957.72;;;22.44;31.51
77212;BME280;66206;0.000;0.000;2023-05-07T08:06:04;97957.12;;;22.24;31.53
77212;BME280;66206;0.000;0.000;2023-05-07T08:08:30;97960.42;;;21.95;32.05
77212;BME280;66206;0.000;0.000;2023-05-07T08:10:57;97963.51;;;22.21;31.61
77212;BME280;66206;0.000;0.000;2023-05-07T08:13:23;97965.14;;;22.29;31.45
77212;BME280;66206;0.000;0.000;2023-05-07T08:15:50;97968.14;;;22.20;31.69
77212;BME280;66206;0.000;0.000;2023-05-07T08:18:17;97968.57;;;22.45;31.51
77212;BME280;66206;0.000;0.000;2023-05-07T08:20:43;97967.08;;;22.07;31.83
77212;BME280;66206;0.000;0.000;2023-05-07T08:23:10;97968.40;;;22.02;31.94
77212;BME280;66206;0.000;0.000;2023-05-07T08:25:36;97971.80;;;22.17;31.63
77212;BME280;66206;0.000;0.000;2023-05-07T08:28:03;97974.45;;;22.51;31.35
77212;BME280;66206;0.000;0.000;2023-05-07T08:30:30;97978.77;;;22.58;31.29
77212;BME280;66206;0.000;0.000;2023-05-07T08:32:56;97979.72;;;22.60;31.28
77212;BME280;66206;0.000;0.000;2023-05-07T08:35:23;97976.77;;;22.44;31.51
77212;BME280;66206;0.000;0.000;2023-05-07T08:37:49;97982.84;;;22.26;31.65
77212;BME280;66206;0.000;0.000;2023-05-07T08:40:16;97985.68;;;22.45;31.52
77212;BME280;66206;0.000;0.000;2023-05-07T08:42:43;97986.78;;;22.42;31.47
77212;BME280;66206;0.000;0.000;2023-05-07T08:45:10;97987.75;;;22.53;31.47
77212;BME280;66206;0.000;0.000;2023-05-07T08:47:40;97989.15;;;22.20;31.83
77212;BME280;66206;0.000;0.000;2023-05-07T08:50:03;97991.88;;;22.27;31.76
77212;BME280;66206;0.000;0.000;2023-05-07T08:52:31;97992.47;;;22.42;31.74
77212;BME280;66206;0.000;0.000;2023-05-07T08:54:58;97986.31;;;22.35;31.75
77212;BME280;66206;0.000;0.000;2023-05-07T08:57:25;97984.15;;;22.16;31.76
77212;BME280;66206;0.000;0.000;2023-05-07T08:59:52;97976.38;;;22.40;31.65
77212;BME280;66206;0.000;0.000;2023-05-07T09:02:18;97975.07;;;22.63;31.48
77212;BME280;66206;0.000;0.000;2023-05-07T09:04:45;97972.28;;;22.56;31.54
77212;BME280;66206;0.000;0.000;2023-05-07T09:07:11;97974.02;;;22.80;31.33
77212;BME280;66206;0.000;0.000;2023-05-07T09:09:38;97974.18;;;23.00;31.16
77212;BME280;66206;0.000;0.000;2023-05-07T09:12:05;97978.91;;;22.69;31.28
77212;BME280;66206;0.000;0.000;2023-05-07T09:14:32;97979.21;;;22.57;31.48
77212;BME280;66206;0.000;0.000;2023-05-07T09:16:58;97980.70;;;22.83;31.31
77212;BME280;66206;0.000;0.000;2023-05-07T09:19:25;97979.20;;;22.67;31.45
77212;BME280;66206;0.000;0.000;2023-05-07T09:21:57;97976.77;;;22.58;31.41
77212;BME280;66206;0.000;0.000;2023-05-07T09:24:18;97973.35;;;22.70;31.46
77212;BME280;66206;0.000;0.000;2023-05-07T09:26:45;97967.88;;;22.78;31.46
77212;BME280;66206;0.000;0.000;2023-05-07T09:29:12;97964.63;;;22.68;31.48
77212;BME280;66206;0.000;0.000;2023-05-07T09:31:38;97963.95;;;22.93;31.45
77212;BME280;66206;0.000;0.000;2023-05-07T09:34:05;97965.55;;;22.68;31.54
77212;BME280;66206;0.000;0.000;2023-05-07T09:36:32;97963.32;;;22.64;31.60
77212;BME280;66206;0.000;0.000;2023-05-07T09:38:59;97959.88;;;22.89;31.41
77212;BME280;66206;0.000;0.000;2023-05-07T09:41:26;97955.35;;;22.70;31.51
77212;BME280;66206;0.000;0.000;2023-05-07T09:43:53;97951.47;;;22.91;31.42
77212;BME280;66206;0.000;0.000;2023-05-07T09:46:20;97947.54;;;22.80;31.55
77212;BME280;66206;0.000;0.000;2023-05-07T09:48:46;97951.36;;;22.69;31.66
77212;BME280;66206;0.000;0.000;2023-05-07T09:51:17;97955.41;;;22.64;31.72
77212;BME280;66206;0.000;0.000;2023-05-07T09:53:45;97957.89;;;22.47;31.92
77212;BME280;66206;0.000;0.000;2023-05-07T09:56:12;97959.43;;;22.75;31.54
77212;BME280;66206;0.000;0.000;2023-05-07T09:58:39;97959.04;;;22.72;31.55
77212;BME280;66206;0.000;0.000;2023-05-07T10:01:07;97951.78;;;22.82;31.52
77212;BME280;66206;0.000;0.000;2023-05-07T10:03:35;97948.53;;;22.85;31.48
77212;BME280;66206;0.000;0.000;2023-05-07T10:06:02;97951.02;;;22.66;31.71
77212;BME280;66206;0.000;0.000;2023-05-07T10:08:30;97949.87;;;22.79;31.53
77212;BME280;66206;0.000;0.000;2023-05-07T10:10:56;97957.31;;;22.65;31.74
77212;BME280;66206;0.000;0.000;2023-05-07T10:13:23;97958.95;;;23.00;31.36
77212;BME280;66206;0.000;0.000;2023-05-07T10:15:50;97955.75;;;23.01;31.20
77212;BME280;66206;0.000;0.000;2023-05-07T10:18:17;97953.72;;;22.64;31.63
77212;BME280;66206;0.000;0.000;2023-05-07T10:20:44;97950.70;;;22.30;31.95
77212;BME280;66206;0.000;0.000;2023-05-07T10:23:13;97947.19;;;22.86;31.27
77212;BME280;66206;0.000;0.000;2023-05-07T10:25:41;97950.37;;;22.20;32.04
77212;BME280;66206;0.000;0.000;2023-05-07T10:28:08;97950.60;;;22.63;31.51
77212;BME280;66206;0.000;0.000;2023-05-07T10:30:38;97949.08;;;22.71;31.47
77212;BME280;66206;0.000;0.000;2023-05-07T10:33:04;97947.96;;;22.91;31.31
77212;BME280;66206;0.000;0.000;2023-05-07T10:35:32;97946.61;;;22.87;31.18
77212;BME280;66206;0.000;0.000;2023-05-07T10:37:57;97949.27;;;22.78;31.24
77212;BME280;66206;0.000;0.000;2023-05-07T10:40:23;97949.81;;;23.08;30.96
77212;BME280;66206;0.000;0.000;2023-05-07T10:42:55;97946.87;;;23.09;30.90
77212;BME280;66206;0.000;0.000;2023-05-07T10:45:16;97950.58;;;22.91;30.93
77212;BME280;66206;0.000;0.000;2023-05-07T10:48:13;97952.12;;;23.17;30.68
77212;BME280;66206;0.000;0.000;2023-05-07T10:50:26;97945.71;;;23.17;30.71
77212;BME280;66206;0.000;0.000;2023-05-07T10:52:36;97948.52;;;22.95;30.99
77212;BME280;66206;0.000;0.000;2023-05-07T10:55:19;97946.85;;;23.11;30.71
77212;BME280;66206;0.000;0.000;2023-05-07T10:57:34;97944.74;;;23.07;30.84
77212;BME280;66206;0.000;0.000;2023-05-07T10:59:56;97941.66;;;22.88;31.01
77212;BME280;66206;0.000;0.000;2023-05-07T11:02:22;97933.95;;;22.77;31.12
77212;BME280;66206;0.000;0.000;2023-05-07T11:05:18;97933.63;;;22.85;30.96
77212;BME280;66206;0.000;0.000;2023-05-07T11:07:27;97931.26;;;22.75;31.08
77212;BME280;66206;0.000;0.000;2023-05-07T11:10:05;97932.53;;;23.13;30.65
77212;BME280;66206;0.000;0.000;2023-05-07T11:12:16;97930.89;;;22.97;30.94
77212;BME280;66206;0.000;0.000;2023-05-07T11:14:43;97923.26;;;23.20;30.63
77212;BME280;66206;0.000;0.000;2023-05-07T11:17:10;97922.83;;;23.21;30.66
77212;BME280;66206;0.000;0.000;2023-05-07T11:19:53;97917.55;;;23.21;30.65
77212;BME280;66206;0.000;0.000;2023-05-07T11:22:04;97919.48;;;23.21;30.64
77212;BME280;66206;0.000;0.000;2023-05-07T11:24:30;97919.42;;;23.17;30.54
77212;BME280;66206;0.000;0.000;2023-05-07T11:26:59;97915.72;;;23.25;30.70
77212;BME280;66206;0.000;0.000;2023-05-07T11:29:25;97913.83;;;23.47;30.40
77212;BME280;66206;0.000;0.000;2023-05-07T11:31:53;97909.07;;;23.10;30.69
77212;BME280;66206;0.000;0.000;2023-05-07T11:34:21;97909.30;;;23.34;30.50
77212;BME280;66206;0.000;0.000;2023-05-07T11:36:48;97913.97;;;23.41;30.39
77212;BME280;66206;0.000;0.000;2023-05-07T11:39:31;97914.57;;;23.36;30.45
77212;BME280;66206;0.000;0.000;2023-05-07T11:41:42;97915.81;;;23.43;30.39
77212;BME280;66206;0.000;0.000;2023-05-07T11:44:09;97911.74;;;23.38;30.40
77212;BME280;66206;0.000;0.000;2023-05-07T11:46:35;97905.40;;;23.48;30.38
77212;BME280;66206;0.000;0.000;2023-05-07T11:49:02;97902.62;;;23.32;30.47
77212;BME280;66206;0.000;0.000;2023-05-07T11:51:28;97897.88;;;23.47;30.35
77212;BME280;66206;0.000;0.000;2023-05-07T11:53:56;97902.91;;;23.48;30.26
77212;BME280;66206;0.000;0.000;2023-05-07T11:56:23;97904.54;;;23.52;30.19
77212;BME280;66206;0.000;0.000;2023-05-07T11:58:49;97900.97;;;23.49;30.20
77212;BME280;66206;0.000;0.000;2023-05-07T12:01:16;97900.02;;;23.44;30.01
77212;BME280;66206;0.000;0.000;2023-05-07T12:03:43;97899.68;;;23.49;29.92
77212;BME280;66206;0.000;0.000;2023-05-07T12:06:10;97909.17;;;23.42;30.12
77212;BME280;66206;0.000;0.000;2023-05-07T12:08:37;97909.10;;;23.44;30.09
77212;BME280;66206;0.000;0.000;2023-05-07T12:11:06;97908.52;;;23.69;29.34
77212;BME280;66206;0.000;0.000;2023-05-07T12:13:33;97904.11;;;23.54;29.71
77212;BME280;66206;0.000;0.000;2023-05-07T12:16:00;97902.50;;;23.44;29.72
77212;BME280;66206;0.000;0.000;2023-05-07T12:18:26;97901.18;;;23.57;29.67
77212;BME280;66206;0.000;0.000;2023-05-07T12:20:54;97902.19;;;23.38;29.61
77212;BME280;66206;0.000;0.000;2023-05-07T12:23:21;97906.90;;;23.37;29.67
77212;BME280;66206;0.000;0.000;2023-05-07T12:25:48;97905.30;;;23.54;29.69
77212;BME280;66206;0.000;0.000;2023-05-07T12:28:15;97903.98;;;23.33;29.83
77212;BME280;66206;0.000;0.000;2023-05-07T12:30:42;97901.13;;;23.58;29.78
77212;BME280;66206;0.000;0.000;2023-05-07T12:33:08;97898.41;;;23.40;29.75
77212;BME280;66206;0.000;0.000;2023-05-07T12:35:36;97900.60;;;23.57;29.88
77212;BME280;66206;0.000;0.000;2023-05-07T12:38:03;97901.68;;;23.45;29.78
77212;BME280;66206;0.000;0.000;2023-05-07T12:40:35;97907.50;;;23.36;29.84
77212;BME280;66206;0.000;0.000;2023-05-07T12:42:58;97903.60;;;23.46;29.82
77212;BME280;66206;0.000;0.000;2023-05-07T12:45:25;97902.88;;;23.50;29.75
77212;BME280;66206;0.000;0.000;2023-05-07T12:47:52;97901.28;;;23.52;29.81
77212;BME280;66206;0.000;0.000;2023-05-07T12:50:19;97902.42;;;23.48;29.71
77212;BME280;66206;0.000;0.000;2023-05-07T12:52:45;97897.24;;;23.53;29.69
77212;BME280;66206;0.000;0.000;2023-05-07T12:55:13;97897.23;;;23.52;29.75
77212;BME280;66206;0.000;0.000;2023-05-07T12:57:41;97896.24;;;23.48;29.68
77212;BME280;66206;0.000;0.000;2023-05-07T13:00:08;97892.41;;;23.43;29.50
77212;BME280;66206;0.000;0.000;2023-05-07T13:02:37;97887.90;;;23.35;29.47
77212;BME280;66206;0.000;0.000;2023-05-07T13:05:04;97886.43;;;23.41;29.50
77212;BME280;66206;0.000;0.000;2023-05-07T13:07:31;97883.31;;;23.36;29.49